sensor_id;sensor_type;location;lat;lon;timestamp;P1;durP1;ratioP1;P2;durP2;ratioP2
10725;SDS011;5414;59.782;16.378;2022-12-07T00:01:42;3.33;;;1.27;;
10725;SDS011;5414;59.782;16.378;2022-12-07T00:04:13;3.17;;;1.33;;
10725;SDS011;5414;59.782;16.378;2022-12-07T00:06:40;3.70;;;2.00;;
10725;SDS011;5414;59.782;16.378;2022-12-07T00:09:07;4.00;;;1.40;;
10725;SDS011;5414;59.782;16.378;2022-12-07T00:11:35;3.30;;;1.50;;
10725;SDS011;5414;59.782;16.378;2022-12-07T00:14:02;3.60;;;1.67;;
10725;SDS011;5414;59.782;16.378;2022-12-07T00:16:29;3.83;;;1.80;;
10725;SDS011;5414;59.782;16.378;2022-12-07T00:18:56;3.53;;;1.60;;
10725;SDS011;5414;59.782;16.378;2022-12-07T00:21:29;3.93;;;1.30;;
10725;SDS011;5414;59.782;16.378;2022-12-07T00:23:55;2.33;;;1.40;;
10725;SDS011;5414;59.782;16.378;2022-12-07T00:26:23;5.13;;;1.33;;
10725;SDS011;5414;59.782;16.378;2022-12-07T00:28:50;3.57;;;1.67;;
10725;SDS011;5414;59.782;16.378;2022-12-07T00:31:18;2.73;;;1.47;;
10725;SDS011;5414;59.782;16.378;2022-12-07T00:33:46;2.27;;;1.30;;
10725;SDS011;5414;59.782;16.378;2022-12-07T00:36:13;3.40;;;1.53;;
10725;SDS011;5414;59.782;16.378;2022-12-07T00:38:40;2.63;;;1.30;;
10725;SDS011;5414;59.782;16.378;2022-12-07T00:41:10;6.30;;;1.30;;
10725;SDS011;5414;59.782;16.378;2022-12-07T00:43:36;2.30;;;1.50;;
10725;SDS011;5414;59.782;16.378;2022-12-07T00:46:03;2.70;;;1.20;;
10725;SDS011;5414;59.782;16.378;2022-12-07T00:48:29;2.70;;;1.10;;
10725;SDS011;5414;59.782;16.378;2022-12-07T00:50:55;4.40;;;1.40;;
10725;SDS011;5414;59.782;16.378;2022-12-07T00:53:22;2.63;;;1.33;;
10725;SDS011;5414;59.782;16.378;2022-12-07T00:55:48;1.83;;;1.43;;
10725;SDS011;5414;59.782;16.378;2022-12-07T00:58:14;3.50;;;1.27;;
10725;SDS011;5414;59.782;16.378;2022-12-07T01:00:41;2.17;;;1.30;;
10725;SDS011;5414;59.782;16.378;2022-12-07T01:03:08;2.57;;;1.40;;
10725;SDS011;5414;59.782;16.378;2022-12-07T01:05:34;4.43;;;1.60;;
10725;SDS011;5414;59.782;16.378;2022-12-07T01:08:00;2.53;;;1.30;;
10725;SDS011;5414;59.782;16.378;2022-12-07T01:10:26;1.70;;;1.20;;
10725;SDS011;5414;59.782;16.378;2022-12-07T01:12:53;2.73;;;1.30;;
10725;SDS011;5414;59.782;16.378;2022-12-07T01:15:19;2.67;;;1.33;;
10725;SDS011;5414;59.782;16.378;2022-12-07T01:17:45;1.67;;;1.20;;
10725;SDS011;5414;59.782;16.378;2022-12-07T01:20:11;2.13;;;1.20;;
10725;SDS011;5414;59.782;16.378;2022-12-07T01:22:38;2.63;;;1.70;;
10725;SDS011;5414;59.782;16.378;2022-12-07T01:25:05;2.87;;;1.63;;
10725;SDS011;5414;59.782;16.378;2022-12-07T01:27:32;2.53;;;1.40;;
10725;SDS011;5414;59.782;16.378;2022-12-07T01:29:58;3.93;;;1.50;;
10725;SDS011;5414;59.782;16.378;2022-12-07T01:32:24;4.13;;;1.60;;
10725;SDS011;5414;59.782;16.378;2022-12-07T01:34:50;2.27;;;1.33;;
10725;SDS011;5414;59.782;16.378;2022-12-07T01:37:16;3.90;;;1.43;;
10725;SDS011;5414;59.782;16.378;2022-12-07T01:39:42;3.63;;;1.80;;
10725;SDS011;5414;59.782;16.378;2022-12-07T01:42:11;3.33;;;1.73;;
10725;SDS011;5414;59.782;16.378;2022-12-07T01:47:22;3.50;;;1.97;;
10725;SDS011;5414;59.782;16.378;2022-12-07T01:49:48;3.27;;;1.67;;
10725;SDS011;5414;59.782;16.378;2022-12-07T01:52:30;2.80;;;1.80;;
10725;SDS011;5414;59.782;16.378;2022-12-07T01:54:58;3.17;;;1.50;;
10725;SDS011;5414;59.782;16.378;2022-12-07T01:57:25;2.47;;;1.80;;
10725;SDS011;5414;59.782;16.378;2022-12-07T01:59:51;4.63;;;1.70;;
10725;SDS011;5414;59.782;16.378;2022-12-07T02:02:20;3.13;;;1.60;;
10725;SDS011;5414;59.782;16.378;2022-12-07T02:04:47;3.73;;;1.60;;
10725;SDS011;5414;59.782;16.378;2022-12-07T02:07:13;4.03;;;1.90;;
10725;SDS011;5414;59.782;16.378;2022-12-07T02:09:39;3.43;;;1.70;;
10725;SDS011;5414;59.782;16.378;2022-12-07T02:12:05;4.17;;;1.73;;
10725;SDS011;5414;59.782;16.378;2022-12-07T02:14:31;3.70;;;1.90;;
10725;SDS011;5414;59.782;16.378;2022-12-07T02:30:31;2.97;;;1.80;;
10725;SDS011;5414;59.782;16.378;2022-12-07T02:35:26;2.90;;;1.37;;
10725;SDS011;5414;59.782;16.378;2022-12-07T02:40:47;3.17;;;1.90;;
10725;SDS011;5414;59.782;16.378;2022-12-07T02:45:40;3.27;;;2.13;;
10725;SDS011;5414;59.782;16.378;2022-12-07T02:48:08;2.87;;;1.90;;
10725;SDS011;5414;59.782;16.378;2022-12-07T02:50:35;2.70;;;1.93;;
10725;SDS011;5414;59.782;16.378;2022-12-07T02:53:01;4.60;;;2.23;;
10725;SDS011;5414;59.782;16.378;2022-12-07T02:55:28;5.23;;;1.93;;
10725;SDS011;5414;59.782;16.378;2022-12-07T03:00:35;3.23;;;1.90;;
10725;SDS011;5414;59.782;16.378;2022-12-07T03:03:10;3.00;;;1.60;;
10725;SDS011;5414;59.782;16.378;2022-12-07T03:16:07;2.80;;;1.60;;
10725;SDS011;5414;59.782;16.378;2022-12-07T03:18:45;3.10;;;2.00;;
10725;SDS011;5414;59.782;16.378;2022-12-07T03:21:14;8.60;;;2.17;;
10725;SDS011;5414;59.782;16.378;2022-12-07T03:23:41;6.70;;;1.93;;
10725;SDS011;5414;59.782;16.378;2022-12-07T03:26:10;3.20;;;1.83;;
10725;SDS011;5414;59.782;16.378;2022-12-07T03:28:38;3.17;;;2.10;;
10725;SDS011;5414;59.782;16.378;2022-12-07T03:34:02;4.87;;;2.20;;
10725;SDS011;5414;59.782;16.378;2022-12-07T03:41:40;3.93;;;2.00;;
10725;SDS011;5414;59.782;16.378;2022-12-07T03:44:06;3.13;;;2.17;;
10725;SDS011;5414;59.782;16.378;2022-12-07T03:49:17;2.87;;;1.80;;
10725;SDS011;5414;59.782;16.378;2022-12-07T03:52:11;3.67;;;2.33;;
10725;SDS011;5414;59.782;16.378;2022-12-07T03:57:02;6.33;;;2.57;;
10725;SDS011;5414;59.782;16.378;2022-12-07T03:59:28;4.30;;;2.03;;
10725;SDS011;5414;59.782;16.378;2022-12-07T04:01:56;4.67;;;2.53;;
10725;SDS011;5414;59.782;16.378;2022-12-07T04:04:23;4.10;;;2.27;;
10725;SDS011;5414;59.782;16.378;2022-12-07T04:06:49;6.07;;;2.80;;
10725;SDS011;5414;59.782;16.378;2022-12-07T04:09:15;5.17;;;2.50;;
10725;SDS011;5414;59.782;16.378;2022-12-07T04:11:41;5.20;;;2.17;;
10725;SDS011;5414;59.782;16.378;2022-12-07T04:14:08;3.63;;;2.47;;
10725;SDS011;5414;59.782;16.378;2022-12-07T04:16:43;4.37;;;2.23;;
10725;SDS011;5414;59.782;16.378;2022-12-07T04:19:09;5.57;;;2.50;;
10725;SDS011;5414;59.782;16.378;2022-12-07T04:21:35;3.97;;;2.00;;
10725;SDS011;5414;59.782;16.378;2022-12-07T04:24:01;4.67;;;2.40;;
10725;SDS011;5414;59.782;16.378;2022-12-07T04:26:27;4.83;;;2.53;;
10725;SDS011;5414;59.782;16.378;2022-12-07T04:28:53;5.37;;;2.70;;
10725;SDS011;5414;59.782;16.378;2022-12-07T04:31:19;5.50;;;2.33;;
10725;SDS011;5414;59.782;16.378;2022-12-07T04:33:45;4.27;;;2.40;;
10725;SDS011;5414;59.782;16.378;2022-12-07T04:36:11;3.70;;;2.30;;
10725;SDS011;5414;59.782;16.378;2022-12-07T04:38:37;3.77;;;2.33;;
10725;SDS011;5414;59.782;16.378;2022-12-07T04:41:07;4.33;;;2.30;;
10725;SDS011;5414;59.782;16.378;2022-12-07T04:43:33;4.07;;;2.20;;
10725;SDS011;5414;59.782;16.378;2022-12-07T04:45:59;3.77;;;2.30;;
10725;SDS011;5414;59.782;16.378;2022-12-07T04:48:26;3.73;;;2.40;;
10725;SDS011;5414;59.782;16.378;2022-12-07T04:50:52;3.90;;;2.13;;
10725;SDS011;5414;59.782;16.378;2022-12-07T04:53:18;2.27;;;1.87;;
10725;SDS011;5414;59.782;16.378;2022-12-07T04:55:44;3.77;;;1.87;;
10725;SDS011;5414;59.782;16.378;2022-12-07T04:58:11;4.63;;;2.30;;
10725;SDS011;5414;59.782;16.378;2022-12-07T05:00:37;3.93;;;2.20;;
10725;SDS011;5414;59.782;16.378;2022-12-07T05:03:03;3.00;;;1.90;;
10725;SDS011;5414;59.782;16.378;2022-12-07T05:05:29;3.60;;;2.10;;
10725;SDS011;5414;59.782;16.378;2022-12-07T05:07:55;5.30;;;2.27;;
10725;SDS011;5414;59.782;16.378;2022-12-07T05:10:22;3.17;;;2.40;;
10725;SDS011;5414;59.782;16.378;2022-12-07T05:12:48;3.23;;;2.00;;
10725;SDS011;5414;59.782;16.378;2022-12-07T05:15:15;4.00;;;2.10;;
10725;SDS011;5414;59.782;16.378;2022-12-07T05:17:41;2.73;;;1.83;;
10725;SDS011;5414;59.782;16.378;2022-12-07T05:20:07;4.60;;;1.67;;
10725;SDS011;5414;59.782;16.378;2022-12-07T05:22:34;4.23;;;2.60;;
10725;SDS011;5414;59.782;16.378;2022-12-07T05:25:00;4.03;;;2.30;;
10725;SDS011;5414;59.782;16.378;2022-12-07T05:27:26;4.17;;;2.20;;
10725;SDS011;5414;59.782;16.378;2022-12-07T05:29:52;3.37;;;2.10;;
10725;SDS011;5414;59.782;16.378;2022-12-07T05:32:18;3.80;;;2.00;;
10725;SDS011;5414;59.782;16.378;2022-12-07T05:34:44;3.13;;;1.63;;
10725;SDS011;5414;59.782;16.378;2022-12-07T05:37:10;2.47;;;1.70;;
10725;SDS011;5414;59.782;16.378;2022-12-07T05:39:38;5.03;;;2.20;;
10725;SDS011;5414;59.782;16.378;2022-12-07T05:42:06;3.30;;;1.47;;
10725;SDS011;5414;59.782;16.378;2022-12-07T05:44:41;3.23;;;1.87;;
10725;SDS011;5414;59.782;16.378;2022-12-07T05:47:08;5.27;;;1.80;;
10725;SDS011;5414;59.782;16.378;2022-12-07T05:49:34;3.03;;;1.80;;
10725;SDS011;5414;59.782;16.378;2022-12-07T05:52:00;4.00;;;1.83;;
10725;SDS011;5414;59.782;16.378;2022-12-07T05:54:26;3.10;;;1.80;;
10725;SDS011;5414;59.782;16.378;2022-12-07T05:56:52;3.30;;;1.60;;
10725;SDS011;5414;59.782;16.378;2022-12-07T05:59:19;4.07;;;1.87;;
10725;SDS011;5414;59.782;16.378;2022-12-07T06:01:49;3.70;;;1.80;;
10725;SDS011;5414;59.782;16.378;2022-12-07T06:04:15;2.40;;;1.60;;
10725;SDS011;5414;59.782;16.378;2022-12-07T06:06:41;2.43;;;1.40;;
10725;SDS011;5414;59.782;16.378;2022-12-07T06:09:07;2.07;;;1.40;;
10725;SDS011;5414;59.782;16.378;2022-12-07T06:11:33;4.33;;;1.70;;
10725;SDS011;5414;59.782;16.378;2022-12-07T06:14:18;2.63;;;1.40;;
10725;SDS011;5414;59.782;16.378;2022-12-07T06:16:44;2.57;;;1.70;;
10725;SDS011;5414;59.782;16.378;2022-12-07T06:19:11;3.37;;;1.60;;
10725;SDS011;5414;59.782;16.378;2022-12-07T06:21:37;4.53;;;1.50;;
10725;SDS011;5414;59.782;16.378;2022-12-07T06:24:03;4.07;;;1.40;;
10725;SDS011;5414;59.782;16.378;2022-12-07T06:26:30;1.60;;;1.10;;
10725;SDS011;5414;59.782;16.378;2022-12-07T06:28:57;1.87;;;1.30;;
10725;SDS011;5414;59.782;16.378;2022-12-07T06:31:23;3.13;;;1.20;;
10725;SDS011;5414;59.782;16.378;2022-12-07T06:33:49;3.57;;;1.60;;
10725;SDS011;5414;59.782;16.378;2022-12-07T06:36:16;2.33;;;1.63;;
10725;SDS011;5414;59.782;16.378;2022-12-07T06:38:43;2.30;;;1.30;;
10725;SDS011;5414;59.782;16.378;2022-12-07T06:41:09;1.90;;;1.30;;
10725;SDS011;5414;59.782;16.378;2022-12-07T06:43:35;3.83;;;1.97;;
10725;SDS011;5414;59.782;16.378;2022-12-07T06:46:01;3.57;;;1.30;;
10725;SDS011;5414;59.782;16.378;2022-12-07T06:48:27;2.40;;;1.13;;
10725;SDS011;5414;59.782;16.378;2022-12-07T06:50:53;2.07;;;1.27;;
10725;SDS011;5414;59.782;16.378;2022-12-07T06:53:19;1.50;;;1.00;;
10725;SDS011;5414;59.782;16.378;2022-12-07T06:55:45;3.53;;;1.30;;
10725;SDS011;5414;59.782;16.378;2022-12-07T06:58:11;1.77;;;1.10;;
10725;SDS011;5414;59.782;16.378;2022-12-07T07:00:37;1.43;;;1.00;;
10725;SDS011;5414;59.782;16.378;2022-12-07T07:03:03;1.93;;;1.10;;
10725;SDS011;5414;59.782;16.378;2022-12-07T07:05:29;1.97;;;1.20;;
10725;SDS011;5414;59.782;16.378;2022-12-07T07:07:55;1.97;;;1.17;;
10725;SDS011;5414;59.782;16.378;2022-12-07T07:10:21;2.80;;;1.13;;
10725;SDS011;5414;59.782;16.378;2022-12-07T07:12:47;1.30;;;1.00;;
10725;SDS011;5414;59.782;16.378;2022-12-07T07:15:13;3.40;;;1.00;;
10725;SDS011;5414;59.782;16.378;2022-12-07T07:17:39;1.43;;;1.17;;
10725;SDS011;5414;59.782;16.378;2022-12-07T07:20:05;1.80;;;1.00;;
10725;SDS011;5414;59.782;16.378;2022-12-07T07:22:31;1.57;;;1.03;;
10725;SDS011;5414;59.782;16.378;2022-12-07T07:24:57;1.87;;;1.20;;
10725;SDS011;5414;59.782;16.378;2022-12-07T07:27:23;2.63;;;1.23;;
10725;SDS011;5414;59.782;16.378;2022-12-07T07:29:49;1.50;;;1.00;;
10725;SDS011;5414;59.782;16.378;2022-12-07T07:32:15;3.20;;;1.10;;
10725;SDS011;5414;59.782;16.378;2022-12-07T07:34:42;4.60;;;1.57;;
10725;SDS011;5414;59.782;16.378;2022-12-07T07:37:08;2.80;;;1.20;;
10725;SDS011;5414;59.782;16.378;2022-12-07T07:39:35;1.47;;;1.00;;
10725;SDS011;5414;59.782;16.378;2022-12-07T07:42:01;1.63;;;0.93;;
10725;SDS011;5414;59.782;16.378;2022-12-07T07:44:27;2.60;;;1.10;;
10725;SDS011;5414;59.782;16.378;2022-12-07T07:46:55;1.10;;;0.90;;
10725;SDS011;5414;59.782;16.378;2022-12-07T07:49:21;2.27;;;0.80;;
10725;SDS011;5414;59.782;16.378;2022-12-07T07:51:47;1.80;;;0.90;;
10725;SDS011;5414;59.782;16.378;2022-12-07T07:54:13;2.00;;;0.90;;
10725;SDS011;5414;59.782;16.378;2022-12-07T07:56:39;2.10;;;0.90;;
10725;SDS011;5414;59.782;16.378;2022-12-07T07:59:05;1.40;;;1.10;;
10725;SDS011;5414;59.782;16.378;2022-12-07T08:01:31;1.33;;;0.80;;
10725;SDS011;5414;59.782;16.378;2022-12-07T08:03:57;1.50;;;0.90;;
10725;SDS011;5414;59.782;16.378;2022-12-07T08:06:23;1.10;;;0.80;;
10725;SDS011;5414;59.782;16.378;2022-12-07T08:08:49;1.30;;;1.20;;
10725;SDS011;5414;59.782;16.378;2022-12-07T08:11:15;1.33;;;0.83;;
10725;SDS011;5414;59.782;16.378;2022-12-07T08:13:41;1.93;;;1.43;;
10725;SDS011;5414;59.782;16.378;2022-12-07T08:16:09;1.70;;;1.20;;
10725;SDS011;5414;59.782;16.378;2022-12-07T08:18:36;1.23;;;0.90;;
10725;SDS011;5414;59.782;16.378;2022-12-07T08:21:03;2.50;;;1.10;;
10725;SDS011;5414;59.782;16.378;2022-12-07T08:23:29;1.77;;;1.10;;
10725;SDS011;5414;59.782;16.378;2022-12-07T08:26:00;1.57;;;0.97;;
10725;SDS011;5414;59.782;16.378;2022-12-07T08:28:26;1.50;;;1.00;;
10725;SDS011;5414;59.782;16.378;2022-12-07T08:30:52;2.67;;;1.73;;
10725;SDS011;5414;59.782;16.378;2022-12-07T08:33:18;2.03;;;1.30;;
10725;SDS011;5414;59.782;16.378;2022-12-07T08:35:47;1.80;;;1.30;;
10725;SDS011;5414;59.782;16.378;2022-12-07T08:38:13;1.33;;;1.10;;
10725;SDS011;5414;59.782;16.378;2022-12-07T08:40:39;1.60;;;1.10;;
10725;SDS011;5414;59.782;16.378;2022-12-07T08:43:06;1.33;;;1.13;;
10725;SDS011;5414;59.782;16.378;2022-12-07T08:45:32;2.20;;;1.23;;
10725;SDS011;5414;59.782;16.378;2022-12-07T08:48:06;1.50;;;1.10;;
10725;SDS011;5414;59.782;16.378;2022-12-07T08:50:36;1.97;;;1.10;;
10725;SDS011;5414;59.782;16.378;2022-12-07T08:53:03;2.33;;;1.30;;
10725;SDS011;5414;59.782;16.378;2022-12-07T08:55:29;1.70;;;1.47;;
10725;SDS011;5414;59.782;16.378;2022-12-07T08:57:56;2.37;;;1.33;;
10725;SDS011;5414;59.782;16.378;2022-12-07T09:00:23;3.40;;;1.00;;
10725;SDS011;5414;59.782;16.378;2022-12-07T09:02:49;2.47;;;1.10;;
10725;SDS011;5414;59.782;16.378;2022-12-07T09:05:15;1.23;;;1.00;;
10725;SDS011;5414;59.782;16.378;2022-12-07T09:07:42;2.27;;;1.13;;
10725;SDS011;5414;59.782;16.378;2022-12-07T09:10:09;3.70;;;1.00;;
10725;SDS011;5414;59.782;16.378;2022-12-07T09:12:35;2.10;;;1.33;;
10725;SDS011;5414;59.782;16.378;2022-12-07T09:15:01;2.40;;;1.67;;
10725;SDS011;5414;59.782;16.378;2022-12-07T09:17:27;2.83;;;1.30;;
10725;SDS011;5414;59.782;16.378;2022-12-07T09:19:53;2.27;;;1.50;;
10725;SDS011;5414;59.782;16.378;2022-12-07T09:22:20;2.60;;;1.23;;
10725;SDS011;5414;59.782;16.378;2022-12-07T09:24:46;1.57;;;1.40;;
10725;SDS011;5414;59.782;16.378;2022-12-07T09:27:12;2.10;;;1.30;;
10725;SDS011;5414;59.782;16.378;2022-12-07T09:29:38;3.70;;;1.80;;
10725;SDS011;5414;59.782;16.378;2022-12-07T09:32:04;3.80;;;1.30;;
10725;SDS011;5414;59.782;16.378;2022-12-07T09:34:31;1.47;;;1.10;;
10725;SDS011;5414;59.782;16.378;2022-12-07T09:36:57;2.23;;;1.20;;
10725;SDS011;5414;59.782;16.378;2022-12-07T09:39:25;1.57;;;1.10;;
10725;SDS011;5414;59.782;16.378;2022-12-07T09:41:51;1.50;;;1.10;;
10725;SDS011;5414;59.782;16.378;2022-12-07T09:44:23;1.60;;;1.20;;
10725;SDS011;5414;59.782;16.378;2022-12-07T09:46:49;1.80;;;1.27;;
10725;SDS011;5414;59.782;16.378;2022-12-07T09:49:19;1.50;;;1.10;;
10725;SDS011;5414;59.782;16.378;2022-12-07T09:51:46;2.50;;;1.30;;
10725;SDS011;5414;59.782;16.378;2022-12-07T09:54:13;2.50;;;1.13;;
10725;SDS011;5414;59.782;16.378;2022-12-07T09:56:40;1.67;;;1.07;;
10725;SDS011;5414;59.782;16.378;2022-12-07T09:59:09;1.93;;;1.20;;
10725;SDS011;5414;59.782;16.378;2022-12-07T10:01:39;3.23;;;1.20;;
10725;SDS011;5414;59.782;16.378;2022-12-07T10:04:13;1.30;;;1.03;;
10725;SDS011;5414;59.782;16.378;2022-12-07T10:06:40;2.77;;;1.50;;
10725;SDS011;5414;59.782;16.378;2022-12-07T10:09:10;3.47;;;2.20;;
10725;SDS011;5414;59.782;16.378;2022-12-07T10:11:57;3.87;;;2.30;;
10725;SDS011;5414;59.782;16.378;2022-12-07T10:14:23;1.70;;;1.30;;
10725;SDS011;5414;59.782;16.378;2022-12-07T10:16:48;3.10;;;1.53;;
10725;SDS011;5414;59.782;16.378;2022-12-07T10:21:58;2.97;;;1.10;;
10725;SDS011;5414;59.782;16.378;2022-12-07T10:24:25;2.60;;;1.33;;
10725;SDS011;5414;59.782;16.378;2022-12-07T10:26:51;2.47;;;1.30;;
10725;SDS011;5414;59.782;16.378;2022-12-07T10:31:50;1.83;;;1.20;;
10725;SDS011;5414;59.782;16.378;2022-12-07T10:34:23;1.67;;;1.10;;
10725;SDS011;5414;59.782;16.378;2022-12-07T10:36:49;2.23;;;1.13;;
10725;SDS011;5414;59.782;16.378;2022-12-07T10:39:22;1.20;;;1.03;;
10725;SDS011;5414;59.782;16.378;2022-12-07T10:41:55;2.10;;;1.17;;
10725;SDS011;5414;59.782;16.378;2022-12-07T10:44:22;2.80;;;1.17;;
10725;SDS011;5414;59.782;16.378;2022-12-07T10:52:41;2.90;;;1.20;;
10725;SDS011;5414;59.782;16.378;2022-12-07T10:55:30;2.73;;;1.23;;
10725;SDS011;5414;59.782;16.378;2022-12-07T10:58:06;1.40;;;0.97;;
10725;SDS011;5414;59.782;16.378;2022-12-07T11:11:36;3.03;;;1.00;;
10725;SDS011;5414;59.782;16.378;2022-12-07T11:14:14;2.23;;;1.10;;
10725;SDS011;5414;59.782;16.378;2022-12-07T11:21:42;2.93;;;2.30;;
10725;SDS011;5414;59.782;16.378;2022-12-07T11:24:15;5.03;;;4.40;;
10725;SDS011;5414;59.782;16.378;2022-12-07T11:39:08;2.50;;;0.97;;
10725;SDS011;5414;59.782;16.378;2022-12-07T11:41:37;3.63;;;1.10;;
10725;SDS011;5414;59.782;16.378;2022-12-07T11:46:51;1.90;;;0.90;;
10725;SDS011;5414;59.782;16.378;2022-12-07T11:51:48;2.30;;;1.00;;
10725;SDS011;5414;59.782;16.378;2022-12-07T11:54:25;1.73;;;1.00;;
10725;SDS011;5414;59.782;16.378;2022-12-07T11:56:51;1.87;;;1.20;;
10725;SDS011;5414;59.782;16.378;2022-12-07T11:59:28;1.80;;;1.07;;
10725;SDS011;5414;59.782;16.378;2022-12-07T12:02:07;1.90;;;1.20;;
10725;SDS011;5414;59.782;16.378;2022-12-07T12:04:52;2.47;;;1.10;;
10725;SDS011;5414;59.782;16.378;2022-12-07T12:07:22;2.43;;;1.00;;
10725;SDS011;5414;59.782;16.378;2022-12-07T12:09:57;2.83;;;1.00;;
10725;SDS011;5414;59.782;16.378;2022-12-07T12:23:19;1.60;;;1.20;;
10725;SDS011;5414;59.782;16.378;2022-12-07T12:25:52;2.77;;;1.07;;
10725;SDS011;5414;59.782;16.378;2022-12-07T12:28:22;1.30;;;1.00;;
10725;SDS011;5414;59.782;16.378;2022-12-07T12:31:04;1.83;;;1.00;;
10725;SDS011;5414;59.782;16.378;2022-12-07T12:33:30;1.43;;;1.10;;
10725;SDS011;5414;59.782;16.378;2022-12-07T12:46:56;3.83;;;1.30;;
10725;SDS011;5414;59.782;16.378;2022-12-07T12:51:53;1.60;;;1.20;;
10725;SDS011;5414;59.782;16.378;2022-12-07T12:54:21;1.80;;;1.13;;
10725;SDS011;5414;59.782;16.378;2022-12-07T12:56:53;2.30;;;1.20;;
10725;SDS011;5414;59.782;16.378;2022-12-07T13:01:51;2.00;;;1.03;;
10725;SDS011;5414;59.782;16.378;2022-12-07T13:04:30;2.33;;;1.40;;
10725;SDS011;5414;59.782;16.378;2022-12-07T13:07:00;2.17;;;1.23;;
10725;SDS011;5414;59.782;16.378;2022-12-07T13:09:27;2.07;;;1.40;;
10725;SDS011;5414;59.782;16.378;2022-12-07T13:12:27;1.93;;;1.20;;
10725;SDS011;5414;59.782;16.378;2022-12-07T13:20:07;2.07;;;1.23;;
10725;SDS011;5414;59.782;16.378;2022-12-07T13:27:37;1.50;;;1.00;;
10725;SDS011;5414;59.782;16.378;2022-12-07T13:30:06;1.40;;;1.20;;
10725;SDS011;5414;59.782;16.378;2022-12-07T13:32:33;3.20;;;1.10;;
10725;SDS011;5414;59.782;16.378;2022-12-07T13:35:01;3.20;;;1.30;;
10725;SDS011;5414;59.782;16.378;2022-12-07T13:37:47;2.57;;;1.37;;
10725;SDS011;5414;59.782;16.378;2022-12-07T13:40:19;2.60;;;1.37;;
10725;SDS011;5414;59.782;16.378;2022-12-07T13:42:46;1.57;;;1.27;;
10725;SDS011;5414;59.782;16.378;2022-12-07T13:47:49;2.73;;;1.00;;
10725;SDS011;5414;59.782;16.378;2022-12-07T13:50:35;3.80;;;1.30;;
10725;SDS011;5414;59.782;16.378;2022-12-07T13:53:07;1.20;;;0.87;;
10725;SDS011;5414;59.782;16.378;2022-12-07T13:55:36;1.10;;;1.00;;
10725;SDS011;5414;59.782;16.378;2022-12-07T13:58:09;1.13;;;0.90;;
10725;SDS011;5414;59.782;16.378;2022-12-07T14:00:36;2.13;;;1.10;;
10725;SDS011;5414;59.782;16.378;2022-12-07T14:03:03;3.23;;;1.23;;
10725;SDS011;5414;59.782;16.378;2022-12-07T14:05:30;2.03;;;1.23;;
10725;SDS011;5414;59.782;16.378;2022-12-07T14:10:30;3.13;;;1.00;;
10725;SDS011;5414;59.782;16.378;2022-12-07T14:12:57;3.13;;;1.00;;
10725;SDS011;5414;59.782;16.378;2022-12-07T14:15:25;1.53;;;1.03;;
10725;SDS011;5414;59.782;16.378;2022-12-07T14:17:53;3.13;;;1.13;;
10725;SDS011;5414;59.782;16.378;2022-12-07T14:20:32;1.60;;;1.20;;
10725;SDS011;5414;59.782;16.378;2022-12-07T14:22:59;3.50;;;1.00;;
10725;SDS011;5414;59.782;16.378;2022-12-07T14:25:43;1.27;;;1.10;;
10725;SDS011;5414;59.782;16.378;2022-12-07T14:28:10;2.70;;;1.20;;
10725;SDS011;5414;59.782;16.378;2022-12-07T14:30:50;1.33;;;0.90;;
10725;SDS011;5414;59.782;16.378;2022-12-07T14:33:16;1.97;;;1.00;;
10725;SDS011;5414;59.782;16.378;2022-12-07T14:35:42;1.73;;;1.07;;
10725;SDS011;5414;59.782;16.378;2022-12-07T14:38:08;2.30;;;1.07;;
10725;SDS011;5414;59.782;16.378;2022-12-07T14:40:34;1.17;;;1.00;;
10725;SDS011;5414;59.782;16.378;2022-12-07T14:43:01;1.87;;;1.07;;
10725;SDS011;5414;59.782;16.378;2022-12-07T14:45:28;2.53;;;1.00;;
10725;SDS011;5414;59.782;16.378;2022-12-07T14:47:54;2.47;;;1.10;;
10725;SDS011;5414;59.782;16.378;2022-12-07T14:50:20;3.10;;;1.50;;
10725;SDS011;5414;59.782;16.378;2022-12-07T14:52:48;4.67;;;1.80;;
10725;SDS011;5414;59.782;16.378;2022-12-07T14:55:20;4.50;;;1.23;;
10725;SDS011;5414;59.782;16.378;2022-12-07T14:57:48;2.70;;;1.10;;
10725;SDS011;5414;59.782;16.378;2022-12-07T15:00:14;1.80;;;1.40;;
10725;SDS011;5414;59.782;16.378;2022-12-07T15:02:42;3.97;;;1.40;;
10725;SDS011;5414;59.782;16.378;2022-12-07T15:05:08;2.37;;;1.23;;
10725;SDS011;5414;59.782;16.378;2022-12-07T15:07:34;3.77;;;0.97;;
10725;SDS011;5414;59.782;16.378;2022-12-07T15:10:00;2.30;;;1.00;;
10725;SDS011;5414;59.782;16.378;2022-12-07T15:12:26;1.53;;;1.00;;
10725;SDS011;5414;59.782;16.378;2022-12-07T15:14:52;2.10;;;1.10;;
10725;SDS011;5414;59.782;16.378;2022-12-07T15:17:18;1.97;;;1.03;;
10725;SDS011;5414;59.782;16.378;2022-12-07T15:19:44;1.20;;;0.90;;
10725;SDS011;5414;59.782;16.378;2022-12-07T15:22:10;5.00;;;1.27;;
10725;SDS011;5414;59.782;16.378;2022-12-07T15:24:36;2.43;;;1.10;;
10725;SDS011;5414;59.782;16.378;2022-12-07T15:27:03;2.47;;;1.07;;
10725;SDS011;5414;59.782;16.378;2022-12-07T15:29:29;2.40;;;1.17;;
10725;SDS011;5414;59.782;16.378;2022-12-07T15:31:55;1.33;;;0.90;;
10725;SDS011;5414;59.782;16.378;2022-12-07T15:34:21;2.17;;;1.10;;
10725;SDS011;5414;59.782;16.378;2022-12-07T15:36:47;3.80;;;1.03;;
10725;SDS011;5414;59.782;16.378;2022-12-07T15:39:13;1.87;;;1.20;;
10725;SDS011;5414;59.782;16.378;2022-12-07T15:41:39;1.83;;;1.20;;
10725;SDS011;5414;59.782;16.378;2022-12-07T15:44:05;3.33;;;1.17;;
10725;SDS011;5414;59.782;16.378;2022-12-07T15:46:50;1.53;;;0.80;;
10725;SDS011;5414;59.782;16.378;2022-12-07T15:49:17;1.87;;;1.00;;
10725;SDS011;5414;59.782;16.378;2022-12-07T15:51:43;2.30;;;1.27;;
10725;SDS011;5414;59.782;16.378;2022-12-07T15:54:13;1.50;;;1.00;;
10725;SDS011;5414;59.782;16.378;2022-12-07T15:56:41;1.27;;;1.10;;
10725;SDS011;5414;59.782;16.378;2022-12-07T15:59:07;3.47;;;1.10;;
10725;SDS011;5414;59.782;16.378;2022-12-07T16:01:33;3.37;;;1.30;;
10725;SDS011;5414;59.782;16.378;2022-12-07T16:03:59;3.40;;;1.30;;
10725;SDS011;5414;59.782;16.378;2022-12-07T16:06:25;1.57;;;1.03;;
10725;SDS011;5414;59.782;16.378;2022-12-07T16:08:51;4.47;;;1.30;;
10725;SDS011;5414;59.782;16.378;2022-12-07T16:11:17;3.93;;;1.83;;
10725;SDS011;5414;59.782;16.378;2022-12-07T16:13:43;3.17;;;1.70;;
10725;SDS011;5414;59.782;16.378;2022-12-07T16:16:11;2.50;;;1.70;;
10725;SDS011;5414;59.782;16.378;2022-12-07T16:18:37;3.10;;;1.43;;
10725;SDS011;5414;59.782;16.378;2022-12-07T16:21:03;2.20;;;1.30;;
10725;SDS011;5414;59.782;16.378;2022-12-07T16:23:29;2.13;;;1.20;;
10725;SDS011;5414;59.782;16.378;2022-12-07T16:26:03;1.97;;;1.10;;
10725;SDS011;5414;59.782;16.378;2022-12-07T16:28:29;2.63;;;1.40;;
10725;SDS011;5414;59.782;16.378;2022-12-07T16:31:06;1.37;;;1.20;;
10725;SDS011;5414;59.782;16.378;2022-12-07T16:33:37;4.07;;;1.10;;
10725;SDS011;5414;59.782;16.378;2022-12-07T16:36:03;1.47;;;1.10;;
10725;SDS011;5414;59.782;16.378;2022-12-07T16:38:30;1.90;;;1.53;;
10725;SDS011;5414;59.782;16.378;2022-12-07T16:40:56;2.03;;;1.20;;
10725;SDS011;5414;59.782;16.378;2022-12-07T16:43:22;1.53;;;1.10;;
10725;SDS011;5414;59.782;16.378;2022-12-07T16:45:48;1.90;;;1.17;;
10725;SDS011;5414;59.782;16.378;2022-12-07T16:48:14;1.60;;;1.17;;
10725;SDS011;5414;59.782;16.378;2022-12-07T16:50:41;1.10;;;1.00;;
10725;SDS011;5414;59.782;16.378;2022-12-07T16:53:08;5.47;;;1.20;;
10725;SDS011;5414;59.782;16.378;2022-12-07T16:55:38;1.43;;;1.03;;
10725;SDS011;5414;59.782;16.378;2022-12-07T16:58:04;1.50;;;1.00;;
10725;SDS011;5414;59.782;16.378;2022-12-07T17:00:30;1.30;;;1.10;;
10725;SDS011;5414;59.782;16.378;2022-12-07T17:02:56;2.13;;;0.90;;
10725;SDS011;5414;59.782;16.378;2022-12-07T17:05:23;1.97;;;1.03;;
10725;SDS011;5414;59.782;16.378;2022-12-07T17:07:49;2.40;;;1.03;;
10725;SDS011;5414;59.782;16.378;2022-12-07T17:10:16;3.10;;;1.37;;